Madrid Aeropuerto

latitud = 40° 28' 00''N | longitud = 003° 33' 20''W
667 metros sobre el nivel del mar |

Fecha, hora, temperatura, viento dirección y velocidad, humedad y presión.

  • 21-01-2018 02:00:00 | 4.50°C | Sur |5.00 km/h | 82.00% | 959.20 hPa
  • 21-01-2018 01:00:00 | 4.70°C | Sudeste |5.00 km/h | 80.00% | 959.60 hPa
  • 21-01-2018 00:00:00 | 5.00°C | Sudeste |3.00 km/h | 79.00% | 959.20 hPa
  • 20-01-2018 23:00:00 | 6.10°C | Este |2.00 km/h | 74.00% | 958.80 hPa
  • 20-01-2018 22:00:00 | 8.10°C | Sur |6.00 km/h | 69.00% | 958.40 hPa
  • 20-01-2018 21:00:00 | 9.50°C | Sudeste |10.00 km/h | 62.00% | 958.00 hPa
  • 20-01-2018 20:00:00 | 12.20°C | Oeste |10.00 km/h | 54.00% | 957.80 hPa
  • 20-01-2018 19:00:00 | 10.70°C | Sur |15.00 km/h | 56.00% | 957.30 hPa
  • 20-01-2018 18:00:00 | 11.50°C | Sudeste |15.00 km/h | 55.00% | 957.00 hPa
  • 20-01-2018 17:00:00 | 13.00°C | Sudeste |11.00 km/h | 49.00% | 956.60 hPa
  • 20-01-2018 16:00:00 | 13.10°C | Sudoeste |11.00 km/h | 47.00% | 956.30 hPa
  • 20-01-2018 15:00:00 | 14.30°C | Sudoeste |16.00 km/h | 40.00% | 956.40 hPa
  • 20-01-2018 14:00:00 | 13.10°C | Oeste |18.00 km/h | 38.00% | 957.00 hPa
  • 20-01-2018 13:00:00 | 11.30°C | Sudoeste |11.00 km/h | 48.00% | 957.90 hPa
  • 20-01-2018 12:00:00 | 8.40°C | Sudeste |9.00 km/h | 76.00% | 958.60 hPa
  • 20-01-2018 11:00:00 | 6.30°C | Este |4.00 km/h | 81.00% | 959.00 hPa
  • 20-01-2018 10:00:00 | 2.90°C | Sudeste |10.00 km/h | 91.00% | 958.70 hPa
  • 20-01-2018 09:00:00 | 0.90°C | Sudeste |7.00 km/h | 95.00% | 958.60 hPa
  • 20-01-2018 08:00:00 | 0.50°C | Sudeste |5.00 km/h | 95.00% | 958.00 hPa
  • 20-01-2018 07:00:00 | 0.00°C | Sur |6.00 km/h | 94.00% | 957.50 hPa
  • 20-01-2018 06:00:00 | 0.30°C | Noroeste |5.00 km/h | 93.00% | 957.40 hPa
  • 20-01-2018 05:00:00 | 1.80°C | Sur |7.00 km/h | 92.00% | 957.00 hPa
  • 20-01-2018 04:00:00 | 1.80°C | Sur |6.00 km/h | 92.00% | 957.30 hPa
  • 20-01-2018 03:00:00 | 2.50°C | Sudeste |3.00 km/h | 90.00% | 957.30 hPa
    • Datos gráficos mensuales en Madrid: